createdAt,value
2017-07-18T00:01:35.838Z,17.40
2017-07-18T00:04:01.783Z,17.40
2017-07-18T00:06:27.767Z,17.30
2017-07-18T00:08:53.758Z,17.10
2017-07-18T00:11:19.710Z,17.10
2017-07-18T00:13:45.706Z,17.10
2017-07-18T00:16:11.650Z,17.10
2017-07-18T00:18:37.633Z,17.00
2017-07-18T00:21:04.366Z,16.90
2017-07-18T00:23:30.309Z,16.90
2017-07-18T00:25:56.299Z,17.00
2017-07-18T00:28:22.987Z,16.90
2017-07-18T00:30:48.937Z,16.80
2017-07-18T00:33:14.955Z,16.80
2017-07-18T00:35:40.969Z,16.80
2017-07-18T00:38:06.919Z,16.90
2017-07-18T00:40:32.904Z,16.90
2017-07-18T00:42:59.590Z,16.90
2017-07-18T00:45:25.610Z,16.90
2017-07-18T00:47:51.566Z,17.00
2017-07-18T00:50:17.526Z,17.00
2017-07-18T00:52:43.517Z,16.80
2017-07-18T00:55:09.486Z,16.80
2017-07-18T00:57:35.477Z,16.90
2017-07-18T01:00:01.425Z,17.00
2017-07-18T01:02:27.395Z,17.00
2017-07-18T01:04:53.365Z,16.90
2017-07-18T01:07:19.323Z,16.90
2017-07-18T01:09:46.049Z,16.90
2017-07-18T01:12:12.731Z,17.00
2017-07-18T01:14:38.749Z,17.10
2017-07-18T01:17:04.704Z,17.10
2017-07-18T01:19:30.654Z,17.20
2017-07-18T01:21:56.653Z,17.20
2017-07-18T01:24:22.590Z,17.10
2017-07-18T01:26:48.577Z,17.10
2017-07-18T01:29:14.572Z,17.10
2017-07-18T01:31:40.517Z,17.20
2017-07-18T01:34:06.499Z,17.20
2017-07-18T01:36:32.442Z,17.20
2017-07-18T01:38:59.172Z,17.30
2017-07-18T01:41:25.161Z,17.30
2017-07-18T01:43:51.122Z,17.30
2017-07-18T01:46:17.115Z,17.30
2017-07-18T01:48:43.099Z,17.20
2017-07-18T01:51:09.041Z,17.20
2017-07-18T01:53:35.018Z,17.20
2017-07-18T01:56:00.955Z,17.20
2017-07-18T01:58:26.913Z,17.20
2017-07-18T02:00:52.881Z,17.10
2017-07-18T02:03:18.882Z,17.10
2017-07-18T02:05:45.216Z,17.10
2017-07-18T02:08:11.157Z,17.10
2017-07-18T02:10:37.093Z,17.00
2017-07-18T02:13:03.068Z,17.00
2017-07-18T02:15:29.760Z,16.90
2017-07-18T02:17:55.781Z,16.90
2017-07-18T02:20:21.731Z,16.90
2017-07-18T02:22:48.455Z,16.80
2017-07-18T02:25:14.457Z,16.80
2017-07-18T02:27:41.148Z,16.80
2017-07-18T02:30:07.141Z,16.70
2017-07-18T02:32:33.117Z,16.70
2017-07-18T02:34:59.073Z,16.70
2017-07-18T02:37:25.053Z,16.70
2017-07-18T02:39:51.006Z,16.70
2017-07-18T02:42:17.741Z,16.70
2017-07-18T02:44:44.428Z,16.70
2017-07-18T02:47:10.400Z,16.70
2017-07-18T02:49:36.370Z,16.70
2017-07-18T02:54:35.760Z,16.80
2017-07-18T02:57:02.445Z,16.80
2017-07-18T02:59:28.421Z,16.80
2017-07-18T03:01:54.393Z,16.80
2017-07-18T03:04:20.333Z,16.90
2017-07-18T03:06:46.317Z,16.90
2017-07-18T03:09:12.260Z,16.90
2017-07-18T03:11:38.940Z,17.00
2017-07-18T03:14:04.921Z,16.90
2017-07-18T03:16:30.873Z,17.00
2017-07-18T03:18:56.821Z,17.00
2017-07-18T03:21:22.825Z,17.00
2017-07-18T03:23:49.501Z,17.10
2017-07-18T03:26:15.433Z,17.10
2017-07-18T03:28:41.421Z,17.10
2017-07-18T03:31:07.364Z,17.10
2017-07-18T03:33:34.058Z,17.20
2017-07-18T03:36:00.074Z,17.20
2017-07-18T03:38:26.039Z,17.20
2017-07-18T03:40:52.025Z,17.30
2017-07-18T03:43:17.965Z,17.30
2017-07-18T03:45:43.938Z,17.30
2017-07-18T03:48:09.906Z,17.30
2017-07-18T03:50:35.869Z,17.30
2017-07-18T03:53:01.866Z,17.40
2017-07-18T03:55:27.817Z,17.40
2017-07-18T03:57:53.792Z,17.50
2017-07-18T04:00:19.766Z,17.50
2017-07-18T04:02:45.711Z,17.60
2017-07-18T04:05:11.746Z,17.60
2017-07-18T04:07:38.449Z,17.50
2017-07-18T04:10:04.394Z,17.50
2017-07-18T04:12:31.101Z,17.60
2017-07-18T04:14:57.040Z,17.60
2017-07-18T04:17:23.025Z,17.60
2017-07-18T04:19:48.973Z,17.70
2017-07-18T04:22:14.927Z,17.70
2017-07-18T04:24:40.913Z,17.70
2017-07-18T04:27:06.853Z,17.60
2017-07-18T04:29:32.792Z,17.70
2017-07-18T04:31:58.756Z,17.70
2017-07-18T04:34:24.772Z,17.70
2017-07-18T04:36:50.750Z,17.70
2017-07-18T04:39:18.178Z,17.80
2017-07-18T04:41:44.391Z,17.90
2017-07-18T04:44:10.676Z,18.00
2017-07-18T04:46:36.638Z,18.00
2017-07-18T04:49:02.899Z,17.90
2017-07-18T04:51:29.018Z,17.90
2017-07-18T04:53:55.011Z,18.00
2017-07-18T04:56:21.704Z,18.00
2017-07-18T04:58:47.672Z,18.00
2017-07-18T05:01:14.021Z,18.10
2017-07-18T05:03:39.965Z,18.10
2017-07-18T05:06:06.698Z,18.20
2017-07-18T05:08:33.394Z,18.30
2017-07-18T05:10:59.351Z,18.30
2017-07-18T05:13:25.340Z,18.40
2017-07-18T05:15:52.557Z,18.40
2017-07-18T05:18:19.266Z,18.30
2017-07-18T05:20:45.270Z,18.30
2017-07-18T05:23:11.269Z,18.50
2017-07-18T05:25:37.252Z,18.60
2017-07-18T05:28:03.211Z,18.60
2017-07-18T05:30:29.632Z,18.70
2017-07-18T05:32:55.618Z,18.70
2017-07-18T05:35:21.558Z,18.80
2017-07-18T05:37:48.254Z,18.90
2017-07-18T05:40:14.256Z,18.90
2017-07-18T05:42:40.225Z,18.80
2017-07-18T05:45:06.203Z,18.80
2017-07-18T05:47:32.177Z,18.90
2017-07-18T05:49:58.124Z,18.80
2017-07-18T05:52:24.862Z,18.80
2017-07-18T05:54:50.824Z,18.80
2017-07-18T05:57:16.805Z,18.90
2017-07-18T05:59:42.817Z,19.00
2017-07-18T06:02:08.770Z,19.00
2017-07-18T06:04:34.759Z,19.10
2017-07-18T06:07:00.706Z,19.10
2017-07-18T06:09:26.649Z,19.10
2017-07-18T06:11:52.633Z,19.20
2017-07-18T06:14:19.321Z,19.20
2017-07-18T06:16:45.315Z,19.20
2017-07-18T06:19:11.261Z,19.20
2017-07-18T06:21:37.216Z,19.40
2017-07-18T06:24:03.206Z,19.30
2017-07-18T06:26:29.154Z,19.40
2017-07-18T06:28:55.141Z,19.60
2017-07-18T06:31:21.081Z,19.70
2017-07-18T06:33:47.028Z,19.80
2017-07-18T06:36:13.026Z,19.80
2017-07-18T06:38:39.714Z,19.90
2017-07-18T06:41:05.714Z,19.90
2017-07-18T06:43:31.679Z,20.00
2017-07-18T06:45:57.660Z,20.00
2017-07-18T06:48:23.650Z,20.10
2017-07-18T06:50:49.594Z,20.20
2017-07-18T06:53:16.277Z,20.40
2017-07-18T06:55:42.289Z,20.30
2017-07-18T06:58:08.244Z,20.40
2017-07-18T07:00:34.925Z,20.50
2017-07-18T07:03:00.927Z,20.50
2017-07-18T07:05:26.889Z,20.50
2017-07-18T07:07:52.828Z,20.50
2017-07-18T07:10:18.829Z,20.60
2017-07-18T07:12:44.793Z,20.60
2017-07-18T07:15:10.742Z,20.50
2017-07-18T07:17:36.752Z,20.60
2017-07-18T07:20:03.438Z,20.70
2017-07-18T07:22:29.398Z,20.80
2017-07-18T07:24:55.378Z,20.80
2017-07-18T07:27:22.128Z,20.80
2017-07-18T07:29:48.107Z,20.80
2017-07-18T07:32:14.068Z,20.80
2017-07-18T07:34:40.057Z,20.70
2017-07-18T07:37:06.046Z,20.80
2017-07-18T07:39:32.733Z,20.90
2017-07-18T07:41:58.709Z,20.90
2017-07-18T07:44:24.686Z,20.90
2017-07-18T07:46:50.674Z,20.80
2017-07-18T07:49:16.616Z,20.90
2017-07-18T07:51:42.569Z,21.00
2017-07-18T07:54:08.569Z,21.10
2017-07-18T07:56:34.545Z,21.10
2017-07-18T07:59:00.493Z,21.30
2017-07-18T08:01:26.502Z,21.40
2017-07-18T08:03:52.444Z,21.50
2017-07-18T08:06:19.120Z,21.60
2017-07-18T08:08:45.097Z,21.50
2017-07-18T08:11:11.032Z,21.60
2017-07-18T08:13:37.016Z,21.60
2017-07-18T08:16:02.990Z,21.70
2017-07-18T08:18:29.006Z,21.90
2017-07-18T08:20:54.948Z,22.00
2017-07-18T08:23:20.888Z,22.10
2017-07-18T08:25:47.616Z,22.30
2017-07-18T08:28:14.292Z,22.30
2017-07-18T08:30:40.229Z,22.30
2017-07-18T08:33:06.215Z,22.40
2017-07-18T08:35:32.172Z,22.40
2017-07-18T08:37:58.849Z,22.40
2017-07-18T08:40:24.825Z,22.30
2017-07-18T08:42:50.782Z,22.40
2017-07-18T08:45:16.797Z,22.50
2017-07-18T08:47:42.736Z,22.50
2017-07-18T08:50:08.681Z,22.60
2017-07-18T08:52:34.666Z,22.50
2017-07-18T08:55:00.661Z,22.60
2017-07-18T08:57:26.606Z,22.80
2017-07-18T08:59:52.588Z,22.90
2017-07-18T09:02:18.537Z,23.00
2017-07-18T09:04:44.476Z,22.90
2017-07-18T09:07:11.198Z,22.90
2017-07-18T09:09:37.876Z,22.90
2017-07-18T09:12:03.861Z,22.90
2017-07-18T09:14:29.800Z,23.00
2017-07-18T09:16:55.739Z,23.10
2017-07-18T09:19:21.725Z,23.10
2017-07-18T09:21:47.668Z,23.10
2017-07-18T09:24:13.657Z,23.20
2017-07-18T09:26:39.601Z,23.30
2017-07-18T09:29:06.287Z,23.60
2017-07-18T09:31:32.265Z,23.50
2017-07-18T09:33:58.245Z,23.60
2017-07-18T09:36:24.224Z,23.70
2017-07-18T09:38:50.917Z,23.30
2017-07-18T09:41:16.900Z,23.30
2017-07-18T09:43:43.572Z,23.00
2017-07-18T09:46:09.548Z,23.00
2017-07-18T09:48:35.529Z,23.00
2017-07-18T09:51:01.482Z,23.10
2017-07-18T09:53:27.433Z,23.00
2017-07-18T09:55:53.411Z,23.10
2017-07-18T09:58:19.363Z,23.00
2017-07-18T10:00:45.293Z,23.00
2017-07-18T10:03:11.263Z,23.10
2017-07-18T10:05:37.200Z,23.10
2017-07-18T10:08:03.945Z,23.30
2017-07-18T10:10:29.909Z,23.30
2017-07-18T10:12:55.844Z,23.40
2017-07-18T10:15:22.569Z,23.60
2017-07-18T10:17:49.257Z,23.80
2017-07-18T10:20:15.197Z,23.90
2017-07-18T10:22:41.924Z,24.10
2017-07-18T10:25:08.610Z,24.30
2017-07-18T10:27:34.616Z,24.20
2017-07-18T10:30:00.599Z,24.40
2017-07-18T10:32:26.528Z,24.60
2017-07-18T10:34:52.500Z,24.70
2017-07-18T10:37:18.437Z,24.60
2017-07-18T10:39:44.421Z,24.60
2017-07-18T10:42:10.408Z,24.70
2017-07-18T10:44:37.093Z,24.80
2017-07-18T10:47:03.134Z,24.80
2017-07-18T10:49:29.831Z,24.80
2017-07-18T10:51:55.781Z,24.80
2017-07-18T10:54:22.488Z,24.90
2017-07-18T10:56:48.437Z,24.90
2017-07-18T10:59:14.453Z,25.00
2017-07-18T11:01:40.393Z,24.60
2017-07-18T11:04:06.341Z,24.20
2017-07-18T11:06:33.069Z,24.50
2017-07-18T11:08:59.043Z,24.50
2017-07-18T11:11:25.069Z,24.70
2017-07-18T11:13:51.748Z,25.00
2017-07-18T11:16:17.695Z,25.00
2017-07-18T11:18:43.674Z,25.00
2017-07-18T11:21:09.607Z,25.30
2017-07-18T11:23:35.592Z,25.10
2017-07-18T11:26:01.554Z,24.90
2017-07-18T11:28:27.514Z,25.00
2017-07-18T11:30:53.483Z,25.00
2017-07-18T11:33:19.491Z,25.00
2017-07-18T11:35:45.506Z,24.90
2017-07-18T11:38:11.444Z,25.00
2017-07-18T11:40:37.382Z,25.10
2017-07-18T11:43:03.352Z,25.10
2017-07-18T11:45:29.340Z,25.20
2017-07-18T11:47:55.321Z,25.30
2017-07-18T11:50:22.013Z,25.80
2017-07-18T11:52:47.988Z,25.80
2017-07-18T11:55:13.924Z,25.80
2017-07-18T11:57:39.912Z,26.00
2017-07-18T12:00:05.898Z,26.20
2017-07-18T12:02:31.864Z,26.50
2017-07-18T12:04:58.603Z,27.00
2017-07-18T12:07:25.289Z,27.00
2017-07-18T12:09:51.282Z,27.00
2017-07-18T12:12:17.240Z,27.10
2017-07-18T12:14:43.179Z,27.10
2017-07-18T12:17:09.154Z,27.10
2017-07-18T12:19:35.115Z,27.10
2017-07-18T12:22:01.097Z,27.30
2017-07-18T12:24:27.112Z,27.40
2017-07-18T12:26:53.090Z,27.70
2017-07-18T12:29:19.038Z,28.40
2017-07-18T12:31:45.025Z,29.10
2017-07-18T12:34:11.036Z,29.70
2017-07-18T12:36:37.041Z,30.50
2017-07-18T12:39:03.000Z,31.40
2017-07-18T12:41:29.001Z,32.50
2017-07-18T12:43:55.005Z,31.30
2017-07-18T12:46:20.980Z,30.30
2017-07-18T12:48:46.924Z,31.00
2017-07-18T12:51:12.899Z,31.80
2017-07-18T12:53:38.908Z,33.20
2017-07-18T12:56:04.853Z,34.40
2017-07-18T12:58:30.809Z,35.00
2017-07-18T13:00:57.548Z,35.60
2017-07-18T13:03:23.576Z,35.60
2017-07-18T13:05:49.573Z,36.10
2017-07-18T13:08:15.513Z,36.30
2017-07-18T13:10:41.472Z,37.00
2017-07-18T13:13:08.189Z,35.70
2017-07-18T13:15:34.929Z,34.70
2017-07-18T13:18:00.892Z,34.60
2017-07-18T13:20:26.846Z,34.00
2017-07-18T13:22:53.606Z,33.00
2017-07-18T13:25:19.552Z,33.00
2017-07-18T13:27:45.496Z,32.70
2017-07-18T13:30:11.470Z,32.60
2017-07-18T13:32:37.418Z,31.70
2017-07-18T13:35:03.404Z,31.60
2017-07-18T13:37:30.144Z,31.80
2017-07-18T13:39:56.093Z,31.80
2017-07-18T13:42:22.049Z,33.10
2017-07-18T13:44:48.768Z,35.80
2017-07-18T13:47:15.529Z,36.60
2017-07-18T13:49:41.473Z,36.60
2017-07-18T13:52:07.417Z,36.60
2017-07-18T13:54:33.393Z,36.90
2017-07-18T13:56:59.385Z,37.40
2017-07-18T13:59:25.378Z,36.10
2017-07-18T14:01:51.324Z,35.10
2017-07-18T14:04:17.263Z,35.10
2017-07-18T14:06:43.238Z,35.10
2017-07-18T14:09:09.180Z,34.20
2017-07-18T14:11:35.181Z,33.60
2017-07-18T14:14:01.884Z,33.60
2017-07-18T14:16:27.834Z,33.50
2017-07-18T14:18:55.346Z,32.70
2017-07-18T14:21:21.284Z,32.70
2017-07-18T14:23:47.301Z,32.30
2017-07-18T14:26:13.245Z,32.30
2017-07-18T14:28:39.189Z,32.70
2017-07-18T14:31:05.905Z,34.80
2017-07-18T14:33:32.602Z,35.10
2017-07-18T14:35:58.908Z,35.20
2017-07-18T14:38:24.853Z,34.50
2017-07-18T14:40:51.532Z,34.90
2017-07-18T14:43:17.504Z,34.90
2017-07-18T14:45:44.220Z,35.30
2017-07-18T14:48:10.931Z,35.40
2017-07-18T14:50:36.880Z,35.40
2017-07-18T14:53:02.869Z,34.50
2017-07-18T14:55:29.556Z,33.30
2017-07-18T14:57:55.499Z,33.20
2017-07-18T15:00:22.224Z,32.00
2017-07-18T15:02:48.937Z,31.70
2017-07-18T15:05:14.884Z,31.70
2017-07-18T15:07:40.900Z,31.20
2017-07-18T15:10:06.841Z,31.10
2017-07-18T15:12:32.788Z,29.90
2017-07-18T15:14:58.798Z,29.80
2017-07-18T15:17:24.776Z,30.10
2017-07-18T15:19:50.758Z,31.40
2017-07-18T15:22:16.707Z,32.40
2017-07-18T15:24:43.448Z,33.40
2017-07-18T15:27:10.261Z,33.10
2017-07-18T15:29:36.949Z,32.60
2017-07-18T15:32:02.917Z,32.60
2017-07-18T15:34:28.862Z,33.00
2017-07-18T15:36:54.830Z,33.50
2017-07-18T15:39:20.772Z,33.80
2017-07-18T15:41:46.708Z,33.90
2017-07-18T15:44:12.693Z,33.50
2017-07-18T15:46:38.660Z,33.70
2017-07-18T15:49:04.614Z,33.50
2017-07-18T15:51:30.605Z,33.00
2017-07-18T15:53:56.584Z,32.40
2017-07-18T15:56:23.275Z,31.60
2017-07-18T15:58:49.268Z,31.50
2017-07-18T16:01:15.204Z,32.00
2017-07-18T16:03:41.236Z,32.30
2017-07-18T16:06:07.192Z,32.00
2017-07-18T16:08:33.172Z,31.70
2017-07-18T16:10:59.129Z,30.60
2017-07-18T16:13:25.068Z,30.10
2017-07-18T16:15:51.053Z,29.80
2017-07-18T16:18:16.998Z,29.90
2017-07-18T16:20:42.940Z,30.30
2017-07-18T16:23:08.916Z,30.20
2017-07-18T16:25:34.861Z,30.30
2017-07-18T16:28:00.862Z,30.00
2017-07-18T16:30:26.878Z,30.40
2017-07-18T16:32:52.828Z,30.30
2017-07-18T16:35:19.545Z,29.80
2017-07-18T16:37:45.485Z,29.70
2017-07-18T16:40:11.421Z,29.30
2017-07-18T16:42:37.393Z,29.30
2017-07-18T16:45:03.351Z,29.50
2017-07-18T16:47:29.405Z,29.60
2017-07-18T16:49:55.376Z,29.40
2017-07-18T16:52:21.385Z,29.50
2017-07-18T16:54:47.409Z,29.20
2017-07-18T16:57:13.351Z,29.00
2017-07-18T16:59:39.293Z,29.00
2017-07-18T17:02:05.264Z,29.00
2017-07-18T17:04:31.217Z,29.10
2017-07-18T17:06:57.223Z,29.20
2017-07-18T17:09:23.169Z,29.30
2017-07-18T17:11:49.850Z,29.30
2017-07-18T17:14:15.824Z,29.30
2017-07-18T17:16:41.765Z,29.30
2017-07-18T17:19:07.736Z,29.30
2017-07-18T17:21:33.685Z,29.30
2017-07-18T17:23:59.677Z,29.40
2017-07-18T17:26:25.641Z,29.30
2017-07-18T17:28:52.318Z,29.10
2017-07-18T17:31:18.326Z,29.10
2017-07-18T17:33:44.270Z,29.10
2017-07-18T17:36:10.264Z,29.10
2017-07-18T17:38:36.201Z,29.10
2017-07-18T17:41:02.935Z,29.00
2017-07-18T17:43:28.876Z,28.90
2017-07-18T17:45:54.892Z,28.90
2017-07-18T17:48:20.829Z,28.70
2017-07-18T17:50:46.768Z,28.60
2017-07-18T17:53:12.741Z,28.60
2017-07-18T17:55:38.717Z,28.50
2017-07-18T17:58:04.684Z,28.40
2017-07-18T18:00:31.386Z,28.30
2017-07-18T18:02:57.381Z,28.30
2017-07-18T18:05:23.329Z,28.30
2017-07-18T18:07:50.013Z,28.10
2017-07-18T18:10:15.980Z,28.10
2017-07-18T18:12:41.969Z,27.90
2017-07-18T18:15:08.652Z,27.80
2017-07-18T18:17:34.590Z,27.70
2017-07-18T18:20:01.310Z,27.70
2017-07-18T18:22:27.296Z,27.60
2017-07-18T18:24:53.273Z,27.60
2017-07-18T18:27:19.213Z,27.40
2017-07-18T18:29:45.186Z,27.40
2017-07-18T18:32:11.137Z,27.30
2017-07-18T18:34:37.125Z,27.20
2017-07-18T18:37:03.064Z,27.00
2017-07-18T18:39:29.001Z,26.90
2017-07-18T18:41:54.973Z,26.90
2017-07-18T18:44:20.904Z,26.70
2017-07-18T18:46:47.623Z,26.80
2017-07-18T18:49:14.339Z,26.70
2017-07-18T18:51:41.030Z,26.60
2017-07-18T18:54:07.065Z,26.60
2017-07-18T18:56:33.049Z,26.50
2017-07-18T18:58:58.992Z,26.30
2017-07-18T19:01:24.961Z,26.20
2017-07-18T19:03:50.906Z,26.10
2017-07-18T19:06:16.879Z,26.20
2017-07-18T19:08:42.845Z,26.10
2017-07-18T19:11:08.821Z,25.90
2017-07-18T19:13:34.756Z,25.80
2017-07-18T19:16:01.441Z,25.70
2017-07-18T19:18:27.427Z,25.60
2017-07-18T19:20:53.369Z,25.60
2017-07-18T19:23:19.343Z,25.50
2017-07-18T19:25:45.313Z,25.60
2017-07-18T19:28:12.002Z,25.30
2017-07-18T19:30:37.977Z,25.30
2017-07-18T19:33:03.916Z,25.30
2017-07-18T19:35:29.894Z,25.30
2017-07-18T19:37:55.869Z,25.10
2017-07-18T19:40:21.829Z,25.00
2017-07-18T19:42:47.805Z,24.80
2017-07-18T19:45:13.749Z,24.70
2017-07-18T19:47:39.766Z,24.60
2017-07-18T19:50:05.709Z,24.50
2017-07-18T19:52:31.660Z,24.40
2017-07-18T19:54:57.643Z,24.30
2017-07-18T19:57:23.588Z,24.20
2017-07-18T19:59:49.572Z,24.10
2017-07-18T20:02:15.520Z,24.20
2017-07-18T20:04:41.453Z,24.10
2017-07-18T20:07:08.161Z,24.00
2017-07-18T20:09:34.100Z,24.00
2017-07-18T20:12:00.074Z,23.80
2017-07-18T20:14:26.016Z,23.80
2017-07-18T20:16:52.040Z,23.70
2017-07-18T20:19:17.981Z,23.80
2017-07-18T20:21:43.952Z,23.70
2017-07-18T20:24:09.890Z,23.50
2017-07-18T20:26:35.879Z,23.60
2017-07-18T20:29:01.826Z,23.50
2017-07-18T20:31:27.839Z,23.40
2017-07-18T20:33:53.810Z,23.40
2017-07-18T20:36:19.744Z,23.40
2017-07-18T20:38:45.713Z,23.40
2017-07-18T20:41:11.657Z,23.30
2017-07-18T20:43:37.625Z,23.20
2017-07-18T20:46:03.578Z,23.30
2017-07-18T20:48:29.597Z,23.30
2017-07-18T20:50:55.603Z,23.20
2017-07-18T20:53:21.549Z,23.10
2017-07-18T20:55:47.524Z,23.10
2017-07-18T20:58:13.495Z,22.80
2017-07-18T21:00:39.432Z,22.80
2017-07-18T21:03:05.402Z,22.60
2017-07-18T21:05:31.345Z,22.60
2017-07-18T21:07:57.490Z,22.70
2017-07-18T21:10:24.166Z,22.60
2017-07-18T21:12:50.105Z,22.60
2017-07-18T21:15:16.125Z,22.60
2017-07-18T21:17:42.821Z,22.40
2017-07-18T21:20:08.797Z,22.30
2017-07-18T21:22:34.744Z,22.30
2017-07-18T21:25:00.718Z,22.20
2017-07-18T21:27:26.652Z,22.20
2017-07-18T21:29:52.585Z,22.10
2017-07-18T21:32:26.145Z,21.90
2017-07-18T21:34:52.072Z,21.90
2017-07-18T21:37:18.049Z,22.00
2017-07-18T21:39:43.988Z,22.00
2017-07-18T21:42:09.972Z,21.90
2017-07-18T21:44:35.905Z,21.90
2017-07-18T21:47:01.886Z,22.00
2017-07-18T21:49:27.901Z,22.00
2017-07-18T21:51:53.894Z,21.90
2017-07-18T21:54:19.832Z,21.70
2017-07-18T21:56:45.800Z,21.80
2017-07-18T21:59:11.773Z,21.70
2017-07-18T22:01:37.710Z,21.70
2017-07-18T22:04:03.713Z,21.70
2017-07-18T22:06:29.661Z,21.70
2017-07-18T22:08:55.599Z,21.50
2017-07-18T22:11:22.318Z,21.50
2017-07-18T22:13:49.005Z,21.40
2017-07-18T22:16:15.017Z,21.40
2017-07-18T22:18:40.959Z,21.40
2017-07-18T22:21:08.053Z,21.30
2017-07-18T22:23:33.996Z,21.30
2017-07-18T22:25:59.997Z,21.20
2017-07-18T22:28:26.013Z,21.10
2017-07-18T22:30:51.944Z,20.90
2017-07-18T22:33:18.665Z,20.90
2017-07-18T22:35:45.350Z,20.60
2017-07-18T22:38:11.337Z,20.60
2017-07-18T22:40:37.277Z,20.50
2017-07-18T22:43:03.221Z,20.60
2017-07-18T22:45:29.227Z,20.50
2017-07-18T22:47:55.237Z,20.50
2017-07-18T22:50:21.914Z,20.50
2017-07-18T22:52:47.880Z,20.40
2017-07-18T22:55:13.825Z,20.40
2017-07-18T22:57:39.818Z,20.40
2017-07-18T23:00:05.757Z,20.40
2017-07-18T23:02:31.701Z,20.30
2017-07-18T23:04:57.689Z,20.20
2017-07-18T23:07:24.378Z,20.10
2017-07-18T23:09:50.330Z,20.10
2017-07-18T23:12:16.297Z,20.00
2017-07-18T23:14:42.277Z,19.90
2017-07-18T23:17:08.216Z,20.00
2017-07-18T23:19:34.153Z,20.00
2017-07-18T23:22:00.901Z,19.90
2017-07-18T23:24:27.617Z,19.80
2017-07-18T23:26:54.380Z,19.70
2017-07-18T23:29:20.317Z,19.70
2017-07-18T23:31:46.248Z,19.70
2017-07-18T23:34:12.248Z,19.80
2017-07-18T23:36:38.193Z,19.70
2017-07-18T23:39:04.132Z,19.70
2017-07-18T23:41:30.141Z,19.80
2017-07-18T23:43:56.073Z,19.70
2017-07-18T23:46:22.050Z,19.60
2017-07-18T23:48:48.024Z,19.70
2017-07-18T23:51:14.748Z,19.60
2017-07-18T23:53:41.421Z,19.50
2017-07-18T23:56:07.373Z,19.40
2017-07-18T23:58:34.088Z,19.40
